createdAt,value
2023-01-21T00:01:33.018Z,13.9
2023-01-21T00:04:20.362Z,13.6
2023-01-21T00:07:07.873Z,14.1
2023-01-21T00:09:55.263Z,11.9
2023-01-21T00:12:42.701Z,13.8
2023-01-21T00:15:30.074Z,13.1
2023-01-21T00:18:17.824Z,13.1
2023-01-21T00:21:05.591Z,14.1
2023-01-21T00:23:53.042Z,14.1
2023-01-21T00:26:40.259Z,13.7
2023-01-21T00:29:27.679Z,13.8
2023-01-21T00:32:15.122Z,12.8
2023-01-21T00:35:04.114Z,14
2023-01-21T00:37:52.733Z,13.8
2023-01-21T00:40:40.570Z,14.6
2023-01-21T00:43:32.986Z,12.6
2023-01-21T00:46:21.126Z,15.1
2023-01-21T00:49:08.610Z,14.9
2023-01-21T00:51:55.919Z,14
2023-01-21T00:54:43.448Z,14.1
2023-01-21T00:57:30.773Z,12.3
2023-01-21T01:00:18.896Z,15.8
2023-01-21T01:03:06.691Z,13.3
2023-01-21T01:05:54.219Z,13.9
2023-01-21T01:08:47.235Z,13.2
2023-01-21T01:11:35.105Z,15.8
2023-01-21T01:14:22.487Z,15.2
2023-01-21T01:17:10.072Z,12.5
2023-01-21T01:19:57.422Z,16.4
2023-01-21T01:22:44.723Z,15.8
2023-01-21T01:25:32.080Z,16.2
2023-01-21T01:28:19.885Z,15.9
2023-01-21T01:31:07.523Z,17.5
2023-01-21T01:33:58.731Z,17.2
2023-01-21T01:36:46.124Z,15.1
2023-01-21T01:39:34.099Z,15.5
2023-01-21T01:42:21.686Z,17
2023-01-21T01:45:09.218Z,15.1
2023-01-21T01:48:04.798Z,16.5
2023-01-21T01:50:54.677Z,16.2
2023-01-21T01:53:44.497Z,15.8
2023-01-21T01:56:33.193Z,15.6
2023-01-21T01:59:23.323Z,17.2
2023-01-21T02:02:12.324Z,16.4
2023-01-21T02:05:03.270Z,15.4
2023-01-21T02:07:53.481Z,16.1
2023-01-21T02:10:40.964Z,17.3
2023-01-21T02:13:28.268Z,18.1
2023-01-21T02:16:18.221Z,18
2023-01-21T02:19:25.191Z,14.2
2023-01-21T02:22:28.699Z,15.3
2023-01-21T02:25:24.919Z,15.5
2023-01-21T02:30:59.559Z,16.3
2023-01-21T02:34:30.814Z,15
2023-01-21T02:37:24.956Z,14.2
2023-01-21T02:40:21.459Z,13.9
2023-01-21T02:43:21.438Z,15.5
2023-01-21T02:46:18.232Z,15.1
2023-01-21T02:49:13.519Z,12.7
2023-01-21T02:52:07.682Z,12.5
2023-01-21T02:55:04.005Z,13.5
2023-01-21T02:57:57.416Z,14.7
2023-01-21T03:00:49.143Z,15.2
2023-01-21T03:03:57.965Z,14.3
2023-01-21T03:07:00.814Z,13.6
2023-01-21T03:09:53.987Z,13.8
2023-01-21T03:12:46.511Z,14.4
2023-01-21T03:15:45.758Z,13.8
2023-01-21T03:19:11.727Z,13.7
2023-01-21T03:22:03.098Z,12.5
2023-01-21T03:24:56.010Z,12.8
2023-01-21T03:27:44.723Z,12.8
2023-01-21T03:30:33.695Z,13
2023-01-21T03:33:25.238Z,12.1
2023-01-21T03:36:17.323Z,11.7
2023-01-21T03:39:13.764Z,12.5
2023-01-21T03:42:07.755Z,14.1
2023-01-21T03:44:55.532Z,15
2023-01-21T03:47:43.005Z,12
2023-01-21T03:50:37.369Z,11.2
2023-01-21T03:53:29.203Z,13.3
2023-01-21T03:56:16.491Z,12
2023-01-21T03:59:04.774Z,13.1
2023-01-21T04:01:52.187Z,13.2
2023-01-21T04:04:39.569Z,12.7
2023-01-21T04:07:26.900Z,11.7
2023-01-21T04:10:14.646Z,13.5
2023-01-21T04:13:02.967Z,12.4
2023-01-21T04:15:50.296Z,12.7
2023-01-21T04:18:37.621Z,12.9
2023-01-21T04:21:25.023Z,11.9
2023-01-21T04:24:12.326Z,13.3
2023-01-21T04:26:59.687Z,12.7
2023-01-21T04:29:47.075Z,13.1
2023-01-21T04:32:34.481Z,13.7
2023-01-21T04:35:21.990Z,12.5
2023-01-21T04:38:09.257Z,12.6
2023-01-21T04:40:56.699Z,14.3
2023-01-21T04:43:44.135Z,12.1
2023-01-21T04:46:31.565Z,12.3
2023-01-21T04:49:19.289Z,12.9
2023-01-21T04:52:07.129Z,13.2
2023-01-21T04:54:54.505Z,12.7
2023-01-21T04:57:42.027Z,14.6
2023-01-21T05:00:29.388Z,14
2023-01-21T05:03:16.721Z,12.9
2023-01-21T05:06:05.189Z,13.8
2023-01-21T05:08:52.937Z,13.3
2023-01-21T05:11:41.341Z,13.1
2023-01-21T05:14:29.148Z,12.9
2023-01-21T05:17:16.452Z,12.6
2023-01-21T05:20:04.857Z,12.4
2023-01-21T05:22:53.556Z,14.1
2023-01-21T05:25:40.915Z,12.2
2023-01-21T05:28:28.393Z,14.9
2023-01-21T05:31:15.639Z,12.7
2023-01-21T05:34:03.277Z,11.6
2023-01-21T05:36:50.566Z,11.7
2023-01-21T05:39:37.900Z,11
2023-01-21T05:42:25.445Z,10.4
2023-01-21T05:45:12.836Z,12.7
2023-01-21T05:48:00.453Z,11.7
2023-01-21T05:50:47.900Z,10.4
2023-01-21T05:53:35.974Z,10.3
2023-01-21T05:56:23.292Z,10.5
2023-01-21T05:59:10.806Z,11
2023-01-21T06:01:58.310Z,11.5
2023-01-21T06:04:45.628Z,9.9
2023-01-21T06:07:33.002Z,12
2023-01-21T06:10:20.306Z,9.3
2023-01-21T06:13:07.732Z,9.9
2023-01-21T06:15:56.751Z,10.1
2023-01-21T06:18:44.109Z,9.4
2023-01-21T06:21:31.776Z,11.1
2023-01-21T06:24:19.302Z,11.4
2023-01-21T06:27:06.760Z,9.3
2023-01-21T06:29:54.166Z,8.7
2023-01-21T06:32:41.397Z,8.6
2023-01-21T06:35:28.779Z,10.2
2023-01-21T06:38:16.256Z,11.4
2023-01-21T06:41:04.329Z,11.1
2023-01-21T06:43:51.714Z,8.2
2023-01-21T06:46:43.340Z,9.1
2023-01-21T06:49:33.093Z,9.2
2023-01-21T06:52:20.575Z,10.4
2023-01-21T06:55:08.916Z,8.2
2023-01-21T06:57:56.907Z,8.3
2023-01-21T07:00:44.301Z,8.9
2023-01-21T07:03:31.581Z,9.6
2023-01-21T07:06:19.194Z,10.2
2023-01-21T07:09:06.999Z,9.6
2023-01-21T07:11:54.617Z,8.6
2023-01-21T07:14:43.244Z,9.3
2023-01-21T07:17:30.542Z,9
2023-01-21T07:20:18.198Z,8.7
2023-01-21T07:23:07.239Z,9.6
2023-01-21T07:25:54.600Z,8.8
2023-01-21T07:28:42.504Z,7.5
2023-01-21T07:31:30.264Z,8.5
2023-01-21T07:34:17.924Z,7.3
2023-01-21T07:37:06.163Z,10.3
2023-01-21T07:39:54.681Z,8.7
2023-01-21T07:42:41.995Z,7.4
2023-01-21T07:45:29.348Z,8
2023-01-21T07:48:16.707Z,7.6
2023-01-21T07:51:04.978Z,9
2023-01-21T07:53:52.888Z,7.5
2023-01-21T07:56:41.220Z,7.1
2023-01-21T07:59:28.556Z,7.6
2023-01-21T08:02:15.987Z,7.1
2023-01-21T08:05:04.033Z,7.1
2023-01-21T08:07:52.130Z,6.4
2023-01-21T08:10:43.222Z,7.2
2023-01-21T08:13:35.399Z,5.5
2023-01-21T08:16:22.764Z,6.1
2023-01-21T08:19:12.555Z,6.9
2023-01-21T08:22:01.005Z,6.2
2023-01-21T08:24:48.367Z,6.4
2023-01-21T08:27:35.729Z,5.4
2023-01-21T08:30:23.143Z,6.3
2023-01-21T08:33:10.851Z,6.1
2023-01-21T08:35:58.709Z,6.1
2023-01-21T08:38:48.716Z,5.8
2023-01-21T08:41:38.071Z,5.7
2023-01-21T08:44:25.450Z,6.2
2023-01-21T08:47:12.770Z,7.3
2023-01-21T08:50:00.124Z,5.8
2023-01-21T08:52:48.214Z,6.5
2023-01-21T08:55:37.697Z,5.6
2023-01-21T08:58:25.693Z,5
2023-01-21T09:01:13.224Z,5.3
2023-01-21T09:04:00.659Z,5.8
2023-01-21T09:06:48.142Z,5.1
2023-01-21T09:09:35.594Z,3.7
2023-01-21T09:12:22.901Z,4.7
2023-01-21T09:15:10.236Z,5.3
2023-01-21T09:17:57.532Z,4.9
2023-01-21T09:20:44.946Z,4.4
2023-01-21T09:23:32.298Z,4.6
2023-01-21T09:26:20.371Z,4.7
2023-01-21T09:29:08.972Z,4.3
2023-01-21T09:31:56.421Z,4.5
2023-01-21T09:34:43.805Z,4.6
2023-01-21T09:37:31.170Z,4.8
2023-01-21T09:40:19.744Z,4.6
2023-01-21T09:43:07.124Z,4.3
2023-01-21T09:46:03.007Z,4.8
2023-01-21T09:48:59.957Z,4.8
2023-01-21T09:51:52.753Z,5.1
2023-01-21T09:54:48.046Z,4.1
2023-01-21T09:57:35.723Z,4.9
2023-01-21T10:00:44.708Z,4.4
2023-01-21T10:03:37.666Z,5.3
2023-01-21T10:06:34.169Z,5.6
2023-01-21T10:09:29.030Z,5.4
2023-01-21T10:12:30.931Z,5.6
2023-01-21T10:15:40.427Z,5.1
2023-01-21T10:18:37.751Z,5.3
2023-01-21T10:21:29.144Z,5.5
2023-01-21T10:24:22.493Z,5.2
2023-01-21T10:27:14.151Z,5.2
2023-01-21T10:30:07.418Z,5.2
2023-01-21T10:33:07.514Z,5.3
2023-01-21T10:36:03.259Z,3.7
2023-01-21T10:39:31.472Z,4
2023-01-21T10:42:31.417Z,4.5
2023-01-21T10:45:32.556Z,4.3
2023-01-21T10:48:29.964Z,4.1
2023-01-21T10:51:30.282Z,4.9
2023-01-21T10:54:26.236Z,4.9
2023-01-21T10:57:26.987Z,3.5
2023-01-21T11:00:34.833Z,3.7
2023-01-21T11:03:27.672Z,4
2023-01-21T11:06:23.514Z,3.7
2023-01-21T11:09:14.374Z,3.2
2023-01-21T11:12:01.718Z,3.2
2023-01-21T11:14:49.639Z,3.6
2023-01-21T11:17:41.703Z,4.1
2023-01-21T11:20:31.717Z,3.3
2023-01-21T11:23:24.701Z,3.1
2023-01-21T11:26:15.108Z,3.2
2023-01-21T11:29:07.484Z,2.5
2023-01-21T11:31:59.197Z,2.8
2023-01-21T11:34:50.049Z,4.2
2023-01-21T11:37:47.161Z,5.7
2023-01-21T11:40:34.533Z,5.1
2023-01-21T11:43:21.886Z,9.7
2023-01-21T11:46:19.385Z,4.5
2023-01-21T11:49:12.997Z,2.7
2023-01-21T11:52:07.388Z,5.9
2023-01-21T11:55:04.894Z,3.6
2023-01-21T11:58:04.974Z,3.3
2023-01-21T12:01:02.759Z,2.9
2023-01-21T12:03:53.773Z,2.9
2023-01-21T12:06:45.532Z,2.9
2023-01-21T12:09:36.184Z,3.1
2023-01-21T12:12:26.186Z,3.1
2023-01-21T12:15:28.235Z,3.2
2023-01-21T12:18:30.009Z,2.6
2023-01-21T12:21:32.791Z,5
2023-01-21T12:24:34.985Z,2.3
2023-01-21T12:27:36.253Z,2.6
2023-01-21T12:30:36.884Z,4.2
2023-01-21T12:33:36.120Z,6.5
2023-01-21T12:36:34.183Z,4.8
2023-01-21T12:39:27.973Z,14
2023-01-21T12:42:21.245Z,3.4
2023-01-21T12:45:16.531Z,2.8
2023-01-21T12:48:09.387Z,35
2023-01-21T12:51:04.698Z,9.1
2023-01-21T12:54:05.061Z,10.3
2023-01-21T12:57:01.826Z,3.1
2023-01-21T12:59:58.657Z,15
2023-01-21T13:02:51.119Z,5.1
2023-01-21T13:05:54.621Z,3.3
2023-01-21T13:08:46.989Z,4
2023-01-21T13:11:44.112Z,3.7
2023-01-21T13:14:37.784Z,2.7
2023-01-21T13:17:29.227Z,2.4
2023-01-21T13:20:19.694Z,2
2023-01-21T13:23:08.390Z,2.7
2023-01-21T13:26:03.962Z,4.1
2023-01-21T13:28:59.772Z,3.2
2023-01-21T13:31:57.485Z,6.6
2023-01-21T13:35:04.783Z,2.3
2023-01-21T13:38:08.237Z,4.8
2023-01-21T13:41:08.361Z,17.2
2023-01-21T13:44:08.129Z,4
2023-01-21T13:47:19.295Z,4.2
2023-01-21T13:50:17.385Z,11.7
2023-01-21T13:53:15.472Z,6.3
2023-01-21T13:56:27.009Z,2
2023-01-21T13:59:29.314Z,7
2023-01-21T14:02:21.825Z,3.5
2023-01-21T14:05:14.834Z,3.9
2023-01-21T14:08:08.857Z,4.5
2023-01-21T14:11:05.312Z,2.6
2023-01-21T14:13:57.471Z,2.7
2023-01-21T14:17:01.885Z,1.9
2023-01-21T14:20:09.725Z,2.1
2023-01-21T14:23:36.499Z,1.8
2023-01-21T14:26:49.531Z,1.7
2023-01-21T14:29:51.205Z,2.4
2023-01-21T14:32:43.968Z,1.5
2023-01-21T14:35:34.921Z,2.2
2023-01-21T14:38:28.205Z,4.9
2023-01-21T14:41:25.779Z,5.2
2023-01-21T14:44:39.601Z,12.4
2023-01-21T14:47:29.784Z,3.8
2023-01-21T14:50:35.787Z,6.2
2023-01-21T14:53:37.799Z,3.5
2023-01-21T14:56:31.304Z,2.8
2023-01-21T14:59:20.199Z,5.6
2023-01-21T15:02:19.448Z,3.2
2023-01-21T15:05:14.469Z,11
2023-01-21T15:08:08.739Z,2.9
2023-01-21T15:11:03.750Z,8.8
2023-01-21T15:13:53.112Z,16.5
2023-01-21T15:16:51.992Z,6.8
2023-01-21T15:19:39.469Z,2.9
2023-01-21T15:22:26.782Z,3.8
2023-01-21T15:25:31.381Z,8.4
2023-01-21T15:28:21.471Z,4.5
2023-01-21T15:31:28.350Z,2.6
2023-01-21T15:34:31.667Z,2.8
2023-01-21T15:37:19.466Z,2.6
2023-01-21T15:40:09.426Z,4.1
2023-01-21T15:43:05.300Z,5
2023-01-21T15:46:04.764Z,3.3
2023-01-21T15:49:09.402Z,1.8
2023-01-21T15:52:18.948Z,6.3
2023-01-21T15:55:21.482Z,3.7
2023-01-21T15:58:31.883Z,2.9
2023-01-21T16:01:31.336Z,2.4
2023-01-21T16:04:21.772Z,1.9
2023-01-21T16:07:19.887Z,1.8
2023-01-21T16:10:18.165Z,2.2
2023-01-21T16:13:15.963Z,2.1
2023-01-21T16:16:13.165Z,2.2
2023-01-21T16:19:12.230Z,4.7
2023-01-21T16:22:01.948Z,4.9
2023-01-21T16:24:54.595Z,2.6
2023-01-21T16:27:47.564Z,2.8
2023-01-21T16:30:37.792Z,3
2023-01-21T16:33:25.273Z,2.4
2023-01-21T16:36:12.725Z,2.3
2023-01-21T16:39:00.363Z,2.1
2023-01-21T16:41:53.813Z,3
2023-01-21T16:44:47.220Z,2.5
2023-01-21T16:47:35.149Z,2.2
2023-01-21T16:50:22.549Z,2.5
2023-01-21T16:53:12.139Z,4
2023-01-21T16:56:01.599Z,2.6
2023-01-21T16:58:49.270Z,2.5
2023-01-21T17:01:36.664Z,2.6
2023-01-21T17:04:23.969Z,2.2
2023-01-21T17:07:12.777Z,2.2
2023-01-21T17:10:02.754Z,2.7
2023-01-21T17:13:02.876Z,2.6
2023-01-21T17:15:55.011Z,2.9
2023-01-21T17:18:46.462Z,2.7
2023-01-21T17:21:38.877Z,4.1
2023-01-21T17:24:30.938Z,3
2023-01-21T17:27:22.473Z,5.3
2023-01-21T17:30:10.936Z,3.6
2023-01-21T17:33:10.215Z,3.7
2023-01-21T17:36:15.233Z,4.2
2023-01-21T17:39:16.734Z,3.9
2023-01-21T17:42:45.387Z,4.4
2023-01-21T17:45:32.703Z,3.7
2023-01-21T17:48:23.242Z,4.3
2023-01-21T17:51:14.280Z,5.4
2023-01-21T17:54:04.241Z,3.8
2023-01-21T17:57:02.528Z,5.3
2023-01-21T17:59:50.002Z,30.4
2023-01-21T18:02:37.356Z,7.6
2023-01-21T18:05:24.851Z,6
2023-01-21T18:08:13.002Z,8.6
2023-01-21T18:11:02.555Z,7.7
2023-01-21T18:13:50.489Z,8.7
2023-01-21T18:16:37.926Z,11.2
2023-01-21T18:19:25.210Z,7.1
2023-01-21T18:22:16.576Z,4.5
2023-01-21T18:25:08.566Z,9.9
2023-01-21T18:27:58.413Z,6.5
2023-01-21T18:30:45.866Z,10
2023-01-21T18:33:34.292Z,6.8
2023-01-21T18:36:21.991Z,9.1
2023-01-21T18:39:09.401Z,7.7
2023-01-21T18:41:58.980Z,5.7
2023-01-21T18:44:46.268Z,5.7
2023-01-21T18:47:33.605Z,23.9
2023-01-21T18:50:20.918Z,10.7
2023-01-21T18:53:10.339Z,15.1
2023-01-21T18:55:58.516Z,12.2
2023-01-21T18:58:46.180Z,5.6
2023-01-21T19:01:33.643Z,10
2023-01-21T19:04:21.155Z,5.9
2023-01-21T19:07:08.551Z,14.6
2023-01-21T19:09:59.867Z,17.4
2023-01-21T19:12:48.177Z,33.3
2023-01-21T19:15:35.726Z,11.7
2023-01-21T19:18:23.558Z,23.7
2023-01-21T19:21:11.217Z,15
2023-01-21T19:23:58.618Z,18.5
2023-01-21T19:26:46.036Z,15.1
2023-01-21T19:29:33.380Z,19.8
2023-01-21T19:32:20.799Z,14.1
2023-01-21T19:35:08.299Z,7.5
2023-01-21T19:37:58.656Z,8.6
2023-01-21T19:40:48.937Z,8.8
2023-01-21T19:43:36.361Z,6.8
2023-01-21T19:46:23.772Z,6.5
2023-01-21T19:49:13.229Z,9.4
2023-01-21T19:52:02.004Z,9.5
2023-01-21T19:54:50.309Z,9.5
2023-01-21T19:57:37.615Z,8.3
2023-01-21T20:00:25.234Z,11.1
2023-01-21T20:03:16.050Z,9.9
2023-01-21T20:06:05.219Z,13.2
2023-01-21T20:08:56.169Z,11.7
2023-01-21T20:11:44.881Z,16.4
2023-01-21T20:14:32.263Z,6.6
2023-01-21T20:17:20.200Z,10.5
2023-01-21T20:20:07.551Z,10.9
2023-01-21T20:23:05.146Z,13.1
2023-01-21T20:25:58.570Z,9
2023-01-21T20:28:45.866Z,10.6
2023-01-21T20:31:35.843Z,9.3
2023-01-21T20:34:23.407Z,9.9
2023-01-21T20:37:12.899Z,16.4
2023-01-21T20:40:00.240Z,17.4
2023-01-21T20:42:48.024Z,27.7
2023-01-21T20:45:36.759Z,9.5
2023-01-21T20:48:28.374Z,7.2
2023-01-21T20:51:18.888Z,6.3
2023-01-21T20:54:06.836Z,9.1
2023-01-21T20:56:54.336Z,8.5
2023-01-21T20:59:41.824Z,6.1
2023-01-21T21:02:29.192Z,6.5
2023-01-21T21:05:17.076Z,6
2023-01-21T21:08:05.674Z,7.3
2023-01-21T21:10:58.610Z,13.8
2023-01-21T21:13:46.023Z,9.6
2023-01-21T21:16:36.520Z,15.2
2023-01-21T21:19:24.326Z,13
2023-01-21T21:22:11.785Z,6
2023-01-21T21:25:00.775Z,9.4
2023-01-21T21:27:48.471Z,7.6
2023-01-21T21:30:36.348Z,7.2
2023-01-21T21:33:23.988Z,8.4
2023-01-21T21:36:12.725Z,5.2
2023-01-21T21:39:02.096Z,6.5
2023-01-21T21:41:49.984Z,7.4
2023-01-21T21:45:08.858Z,7.1
2023-01-21T21:47:56.392Z,9.8
2023-01-21T21:51:15.598Z,7.7
2023-01-21T21:54:03.132Z,8.4
2023-01-21T21:56:52.395Z,5.8
2023-01-21T21:59:40.128Z,5.6
2023-01-21T22:02:27.699Z,6.9
2023-01-21T22:05:15.473Z,7
2023-01-21T22:08:03.049Z,8.9
2023-01-21T22:10:50.953Z,5.8
2023-01-21T22:13:42.060Z,5.4
2023-01-21T22:16:33.564Z,5.8
2023-01-21T22:19:21.149Z,6.5
2023-01-21T22:22:08.977Z,5.5
2023-01-21T22:24:56.262Z,5.1
2023-01-21T22:27:43.587Z,7.4
2023-01-21T22:30:31.102Z,8.9
2023-01-21T22:33:18.717Z,6.1
2023-01-21T22:36:06.864Z,6.5
2023-01-21T22:38:57.529Z,5.7
2023-01-21T22:41:45.676Z,6.7
2023-01-21T22:44:32.977Z,6.9
2023-01-21T22:47:20.492Z,5.8
2023-01-21T22:50:07.978Z,4.9
2023-01-21T22:52:56.507Z,6.7
2023-01-21T22:55:43.820Z,8.3
2023-01-21T22:58:38.191Z,6.8
2023-01-21T23:01:25.891Z,5.1
2023-01-21T23:04:15.613Z,6.3
2023-01-21T23:07:03.212Z,5.4
2023-01-21T23:09:50.590Z,4.4
2023-01-21T23:12:37.870Z,5.6
2023-01-21T23:15:25.244Z,5.2
2023-01-21T23:18:12.739Z,5.1
2023-01-21T23:21:00.522Z,5.6
2023-01-21T23:23:51.256Z,4.6
2023-01-21T23:26:38.608Z,5.3
2023-01-21T23:29:26.708Z,5.3
2023-01-21T23:32:14.018Z,4.9
2023-01-21T23:35:01.398Z,5.5
2023-01-21T23:37:49.150Z,5.2
2023-01-21T23:40:36.670Z,5.5
2023-01-21T23:43:23.994Z,8.3
2023-01-21T23:46:12.309Z,10.3
2023-01-21T23:49:02.779Z,12.8
2023-01-21T23:51:50.231Z,36
2023-01-21T23:54:37.510Z,30.6
2023-01-21T23:57:24.990Z,13.3
